Time;durP1;ratioP1;P1;durP2;ratioP2;P2;SDS_P1;SDS_P2;PMS_P1;PMS_P2;Temp;Humidity;BMP_temperature;BMP_pressure;BME280_temperature;BME280_humidity;BME280_pressure;Samples;Min_cycle;Max_cycle;Signal;HPM_P1;HPM_P2
2023/04/02 00:00:15;;;;;;;3.17;0.30;;;19.50;74.60;;;;;;5032804;28;20046;-76
2023/04/02 00:02:47;;;;;;;1.38;0.43;;;19.50;74.60;;;;;;5018248;28;20049;-76
2023/04/02 00:05:49;;;;;;;1.85;0.20;;;19.50;74.60;;;;;;5016910;28;20073;-75
2023/04/02 00:08:22;;;;;;;1.27;0.63;;;19.50;74.50;;;;;;5021142;28;20114;-75
2023/04/02 00:10:51;;;;;;;2.20;0.30;;;19.50;74.60;;;;;;5019398;28;20057;-76
2023/04/02 00:13:24;;;;;;;1.40;0.50;;;19.40;74.60;;;;;;5025814;28;20445;-76
2023/04/02 00:15:56;;;;;;;1.23;0.35;;;19.50;74.70;;;;;;5012170;28;20491;-76
2023/04/02 00:18:24;;;;;;;1.92;0.80;;;19.40;74.60;;;;;;5028266;28;20041;-76
2023/04/02 00:20:54;;;;;;;2.28;0.63;;;19.40;74.70;;;;;;5020684;28;20045;-76
2023/04/02 00:23:23;;;;;;;3.67;0.80;;;19.40;74.60;;;;;;5022359;28;20061;-76
2023/04/02 00:25:50;;;;;;;1.95;0.40;;;19.40;74.70;;;;;;5015999;28;20559;-76
2023/04/02 00:28:20;;;;;;;2.13;0.30;;;19.40;74.70;;;;;;5030821;28;20405;-77
2023/04/02 00:30:48;;;;;;;;;;;19.30;74.60;;;;;;5021074;28;20429;-76
2023/04/02 00:33:17;;;;;;;1.33;0.20;;;19.30;74.40;;;;;;5018053;28;19921;-76
2023/04/02 00:35:44;;;;;;;2.45;0.90;;;19.30;74.50;;;;;;5028323;28;20053;-75
2023/04/02 00:38:20;;;;;;;2.05;0.30;;;19.30;74.50;;;;;;5024713;28;20145;-75
2023/04/02 00:40:49;;;;;;;1.75;0.28;;;19.40;74.50;;;;;;5021301;28;20050;-75
2023/04/02 00:43:17;;;;;;;2.00;0.40;;;19.40;74.40;;;;;;5023024;28;20053;-75
2023/04/02 00:45:49;;;;;;;1.52;0.40;;;19.40;74.30;;;;;;5018560;28;20049;-75
2023/04/02 00:48:29;;;;;;;1.80;0.80;;;19.50;74.20;;;;;;5028589;28;20045;-75
2023/04/02 00:50:58;;;;;;;2.30;0.20;;;19.50;74.10;;;;;;5029997;28;20057;-75
2023/04/02 00:53:28;;;;;;;0.95;0.22;;;19.60;74.60;;;;;;5028582;28;20076;-75
2023/04/02 00:55:58;;;;;;;1.00;0.20;;;19.60;73.90;;;;;;5024544;28;20049;-74
2023/04/02 00:58:28;;;;;;;1.63;0.30;;;19.60;73.70;;;;;;5015006;28;20042;-74
2023/04/02 01:00:56;;;;;;;1.20;0.20;;;19.70;73.60;;;;;;5018367;28;20049;-75
2023/04/02 01:03:34;;;;;;;1.10;0.28;;;19.80;73.40;;;;;;5017993;28;20099;-75
2023/04/02 01:06:09;;;;;;;1.10;0.20;;;19.90;73.30;;;;;;5034062;28;20041;-75
2023/04/02 01:08:52;;;;;;;2.05;0.20;;;19.90;73.20;;;;;;5028768;28;20446;-74
2023/04/02 01:11:55;;;;;;;0.93;0.10;;;20.00;73.00;;;;;;5015531;28;20410;-75
2023/04/02 01:14:37;;;;;;;1.15;0.68;;;20.10;72.90;;;;;;5015874;28;20117;-75
2023/04/02 01:17:17;;;;;;;0.90;0.20;;;20.10;72.70;;;;;;5013413;28;20469;-75
2023/04/02 01:20:11;;;;;;;1.27;0.22;;;20.10;72.60;;;;;;5025936;28;20084;-74
2023/04/02 01:22:46;;;;;;;0.98;0.30;;;20.10;72.50;;;;;;5021396;28;20057;-74
2023/04/02 01:25:20;;;;;;;1.48;0.20;;;20.20;73.10;;;;;;5023763;28;20054;-74
2023/04/02 01:27:54;;;;;;;1.23;0.30;;;20.10;72.40;;;;;;5028675;28;20052;-74
2023/04/02 01:30:23;;;;;;;1.55;0.30;;;20.10;72.40;;;;;;5014384;28;20054;-75
2023/04/02 01:32:50;;;;;;;1.58;0.50;;;20.10;72.40;;;;;;5027014;28;20508;-74
2023/04/02 01:35:18;;;;;;;1.85;0.20;;;20.10;72.40;;;;;;5010366;28;20049;-75
2023/04/02 01:37:55;;;;;;;2.55;0.30;;;20.10;72.40;;;;;;5023740;28;20057;-75
2023/04/02 01:40:33;;;;;;;0.95;0.30;;;20.10;72.40;;;;;;5023323;28;20057;-74
2023/04/02 01:43:10;;;;;;;0.98;0.30;;;20.00;72.40;;;;;;5027149;28;20049;-73
2023/04/02 01:45:38;;;;;;;2.70;0.30;;;20.00;72.40;;;;;;5026640;28;20061;-75
2023/04/02 01:48:09;;;;;;;1.55;0.55;;;20.00;72.40;;;;;;5013745;28;20049;-75
2023/04/02 01:50:38;;;;;;;0.98;0.20;;;19.90;72.40;;;;;;5015086;28;20049;-75
2023/04/02 01:53:07;;;;;;;1.52;0.80;;;19.90;72.40;;;;;;5017733;28;20046;-75
2023/04/02 01:55:40;;;;;;;1.73;0.30;;;19.90;72.50;;;;;;5020001;28;20065;-75
2023/04/02 01:58:10;;;;;;;1.48;0.20;;;19.90;72.50;;;;;;5014666;28;20072;-74
2023/04/02 02:00:43;;;;;;;1.25;0.30;;;19.80;72.50;;;;;;5020107;28;20065;-75
2023/04/02 02:03:12;;;;;;;1.30;0.20;;;19.80;72.50;;;;;;5023375;28;20054;-75
2023/04/02 02:05:39;;;;;;;1.73;0.20;;;19.80;72.60;;;;;;5023190;28;20053;-74
2023/04/02 02:08:20;;;;;;;1.25;0.30;;;19.70;72.50;;;;;;5027777;28;20038;-74
2023/04/02 02:10:49;;;;;;;1.23;0.20;;;19.70;72.60;;;;;;5037811;28;20150;-75
2023/04/02 02:13:16;;;;;;;1.20;0.63;;;19.70;72.60;;;;;;5027718;28;20684;-74
2023/04/02 02:15:45;;;;;;;1.50;0.20;;;19.60;72.60;;;;;;5027546;28;20647;-75
2023/04/02 02:18:13;;;;;;;1.63;0.20;;;19.60;72.70;;;;;;5013041;28;20550;-75
2023/04/02 02:20:42;;;;;;;1.05;0.20;;;19.60;72.70;;;;;;5020986;28;20053;-75
2023/04/02 02:23:11;;;;;;;1.42;0.17;;;19.50;72.70;;;;;;5027639;28;20045;-75
2023/04/02 02:25:39;;;;;;;1.23;0.22;;;19.50;72.70;;;;;;5018999;28;20137;-76
2023/04/02 02:28:09;;;;;;;1.38;0.63;;;19.50;72.70;;;;;;5024959;28;20084;-75
2023/04/02 02:30:40;;;;;;;1.02;0.13;;;19.50;72.80;;;;;;5020892;28;20054;-75
2023/04/02 02:33:15;;;;;;;1.23;0.73;;;19.40;72.70;;;;;;5025428;28;20045;-76
2023/04/02 02:35:48;;;;;;;1.42;0.20;;;19.40;72.80;;;;;;5022470;28;20057;-76
2023/04/02 02:38:53;;;;;;;1.02;0.20;;;19.40;72.80;;;;;;5024918;28;20038;-75
2023/04/02 02:41:25;;;;;;;1.23;0.65;;;19.40;72.70;;;;;;5021132;28;20521;-74
2023/04/02 02:44:00;;;;;;;1.40;0.50;;;19.40;72.70;;;;;;5018387;28;20054;-75
2023/04/02 02:46:29;;;;;;;0.68;0.10;;;19.40;72.60;;;;;;5025219;28;20077;-75
2023/04/02 02:48:59;;;;;;;1.38;0.20;;;19.40;72.60;;;;;;5031792;28;20052;-75
2023/04/02 02:51:30;;;;;;;2.40;0.30;;;19.40;72.50;;;;;;5021389;28;20058;-75
2023/04/02 02:54:02;;;;;;;1.70;0.20;;;19.50;72.50;;;;;;5014460;28;20050;-76
2023/04/02 02:56:32;;;;;;;1.00;0.30;;;19.50;72.30;;;;;;5026646;28;20046;-75
2023/04/02 02:59:00;;;;;;;1.25;0.22;;;19.60;72.30;;;;;;5031967;28;20052;-75
2023/04/02 03:01:29;;;;;;;1.98;0.93;;;19.60;72.20;;;;;;5024524;28;20485;-73
2023/04/02 03:03:57;;;;;;;1.33;0.20;;;19.60;72.00;;;;;;5020047;28;20096;-75
2023/04/02 03:06:24;;;;;;;1.55;0.20;;;19.70;71.90;;;;;;5015156;28;20415;-74
2023/04/02 03:08:59;;;;;;;1.10;0.10;;;19.80;71.80;;;;;;5016141;28;20038;-75
2023/04/02 03:11:34;;;;;;;1.60;0.20;;;19.90;71.70;;;;;;5023306;28;20049;-75
2023/04/02 03:14:10;;;;;;;0.80;0.10;;;19.90;71.50;;;;;;5022169;28;20069;-75
2023/04/02 03:16:42;;;;;;;2.45;0.25;;;20.00;71.40;;;;;;5016600;28;20052;-75
2023/04/02 03:19:23;;;;;;;1.02;0.13;;;20.00;71.20;;;;;;5022006;28;20057;-75
2023/04/02 03:21:54;;;;;;;1.58;0.50;;;20.10;71.10;;;;;;5024146;28;20073;-75
2023/04/02 03:24:29;;;;;;;0.98;0.17;;;20.10;71.00;;;;;;5024949;28;20048;-75
2023/04/02 03:27:01;;;;;;;0.68;0.10;;;20.10;71.00;;;;;;5023549;28;20098;-75
2023/04/02 03:29:31;;;;;;;0.50;0.10;;;20.10;70.80;;;;;;5028361;28;20050;-75
2023/04/02 03:32:03;;;;;;;1.60;0.38;;;20.10;70.80;;;;;;5016709;28;20060;-74
2023/04/02 03:34:36;;;;;;;1.10;0.20;;;20.10;70.80;;;;;;5016229;28;20454;-76
2023/04/02 03:37:11;;;;;;;0.68;0.15;;;20.10;70.80;;;;;;5017647;28;20045;-75
2023/04/02 03:39:42;;;;;;;1.70;0.20;;;20.10;70.80;;;;;;5027495;28;20056;-76
2023/04/02 03:42:14;;;;;;;1.77;0.20;;;20.10;70.80;;;;;;5030988;28;20057;-75
2023/04/02 03:44:47;;;;;;;1.85;0.20;;;20.00;70.80;;;;;;5029427;28;20196;-76
2023/04/02 03:47:18;;;;;;;1.17;0.40;;;20.00;70.80;;;;;;5019752;28;20056;-75
2023/04/02 03:49:53;;;;;;;1.10;0.20;;;20.00;70.90;;;;;;5026816;28;20049;-75
2023/04/02 03:52:25;;;;;;;1.77;0.70;;;19.90;70.90;;;;;;5017193;28;20052;-75
2023/04/02 03:54:52;;;;;;;1.42;0.20;;;19.90;70.90;;;;;;5016607;28;20046;-76
2023/04/02 03:57:26;;;;;;;1.30;0.52;;;19.80;70.90;;;;;;5030188;28;20046;-75
2023/04/02 04:00:00;;;;;;;1.13;0.20;;;19.90;71.00;;;;;;5011517;28;20054;-74
2023/04/02 04:02:38;;;;;;;1.40;0.20;;;19.80;71.00;;;;;;5020681;28;20438;-75
2023/04/02 04:05:18;;;;;;;0.93;0.30;;;19.80;71.00;;;;;;5027555;28;20272;-74
2023/04/02 04:07:45;;;;;;;1.00;0.20;;;19.80;71.10;;;;;;5020075;28;20558;-74
2023/04/02 04:10:19;;;;;;;0.77;0.15;;;19.70;71.10;;;;;;5025935;28;20426;-75
2023/04/02 04:12:48;;;;;;;0.98;0.20;;;19.70;71.20;;;;;;5039186;28;20050;-74
2023/04/02 04:15:20;;;;;;;0.70;0.10;;;19.70;71.20;;;;;;5028095;28;20064;-74
2023/04/02 04:18:00;;;;;;;1.20;0.20;;;19.60;71.20;;;;;;5024541;28;20935;-75
2023/04/02 04:20:34;;;;;;;1.52;0.63;;;19.60;71.20;;;;;;5022222;28;20049;-74
2023/04/02 04:23:10;;;;;;;0.82;0.10;;;19.60;71.20;;;;;;5016233;28;20057;-74
2023/04/02 04:25:38;;;;;;;1.30;0.20;;;19.50;71.20;;;;;;5022084;28;20057;-75
2023/04/02 04:28:15;;;;;;;2.83;0.38;;;19.50;71.30;;;;;;5024888;28;20069;-73
2023/04/02 04:30:52;;;;;;;1.98;1.30;;;19.40;71.30;;;;;;5017170;28;20869;-74
2023/04/02 04:33:24;;;;;;;1.40;0.73;;;19.40;71.30;;;;;;5029717;28;20048;-75
2023/04/02 04:35:55;;;;;;;1.70;0.20;;;19.40;71.30;;;;;;5014496;28;20049;-74
2023/04/02 04:38:31;;;;;;;1.92;0.50;;;19.40;71.30;;;;;;5024404;28;20049;-74
2023/04/02 04:41:03;;;;;;;0.82;0.10;;;19.40;71.30;;;;;;5026302;28;20073;-75
2023/04/02 04:43:41;;;;;;;1.50;0.20;;;19.40;71.30;;;;;;5022104;28;20417;-74
2023/04/02 04:46:14;;;;;;;1.73;0.30;;;19.50;71.20;;;;;;5018978;28;20058;-73
2023/04/02 04:48:50;;;;;;;1.55;0.10;;;19.50;71.10;;;;;;5026916;28;20053;-74
2023/04/02 04:51:22;;;;;;;1.50;0.28;;;19.50;71.10;;;;;;5018576;28;20049;-74
2023/04/02 04:53:51;;;;;;;2.75;0.57;;;19.50;71.10;;;;;;5027224;28;20049;-74
2023/04/02 04:56:21;;;;;;;;;;;19.50;71.00;;;;;;5017302;28;20061;-75
2023/04/02 04:58:52;;;;;;;1.17;0.10;;;19.50;70.90;;;;;;5021861;28;19929;-74
2023/04/02 05:01:24;;;;;;;0.80;0.10;;;19.60;70.90;;;;;;5016035;28;20061;-74
2023/04/02 05:03:58;;;;;;;0.85;0.40;;;19.60;70.80;;;;;;5024459;28;20049;-74
2023/04/02 05:06:35;;;;;;;1.10;0.20;;;19.60;70.70;;;;;;5016610;28;20049;-74
2023/04/02 05:09:07;;;;;;;0.80;0.10;;;19.70;70.60;;;;;;5013495;28;20053;-74
2023/04/02 05:11:40;;;;;;;1.20;0.55;;;19.70;70.50;;;;;;5024987;28;20053;-74
2023/04/02 05:14:15;;;;;;;0.98;0.10;;;19.80;70.40;;;;;;5017806;28;20077;-75
2023/04/02 05:16:50;;;;;;;0.82;0.40;;;19.90;70.30;;;;;;5028048;28;20084;-75
2023/04/02 05:19:23;;;;;;;1.02;0.17;;;20.00;70.20;;;;;;5017119;28;20049;-75
2023/04/02 05:21:57;;;;;;;1.05;0.40;;;20.00;70.00;;;;;;5024949;28;20057;-75
2023/04/02 05:24:40;;;;;;;1.70;0.10;;;20.10;69.80;;;;;;5016885;28;20070;-75
2023/04/02 05:27:24;;;;;;;1.27;0.47;;;20.10;70.30;;;;;;5023917;28;20490;-75
2023/04/02 05:29:59;;;;;;;1.25;0.10;;;20.10;69.70;;;;;;5029002;28;20061;-74
2023/04/02 05:32:30;;;;;;;0.80;0.32;;;20.10;69.70;;;;;;5025951;28;20053;-75
2023/04/02 05:34:58;;;;;;;0.70;0.20;;;20.20;69.70;;;;;;5022691;28;22394;-75
2023/04/02 05:37:29;;;;;;;1.63;0.90;;;20.10;69.70;;;;;;5021500;28;20506;-75
2023/04/02 05:39:58;;;;;;;1.00;0.20;;;20.10;70.20;;;;;;5025773;28;20053;-74
2023/04/02 05:42:28;;;;;;;1.25;0.80;;;20.10;69.70;;;;;;5026651;28;20065;-75
2023/04/02 05:45:09;;;;;;;1.35;0.25;;;20.10;69.70;;;;;;5015088;28;20045;-74
2023/04/02 05:47:41;;;;;;;1.58;0.20;;;20.10;69.70;;;;;;5019765;28;20573;-75
2023/04/02 05:50:29;;;;;;;0.60;0.10;;;20.00;69.70;;;;;;5014299;28;20049;-74
2023/04/02 05:53:00;;;;;;;;;;;20.00;69.60;;;;;;5036792;28;20053;-75
2023/04/02 05:55:38;;;;;;;0.98;0.20;;;20.10;69.80;;;;;;5020376;28;19924;-75
2023/04/02 05:58:12;;;;;;;1.15;0.10;;;20.50;69.30;;;;;;5020568;28;20042;-75
2023/04/02 06:00:53;;;;;;;0.80;0.10;;;20.90;68.30;;;;;;5019604;28;20064;-74
2023/04/02 06:03:27;;;;;;;1.48;0.30;;;21.00;67.70;;;;;;5017760;28;20049;-75
2023/04/02 06:06:01;;;;;;;0.75;0.10;;;21.00;67.40;;;;;;5023341;28;20437;-75
2023/04/02 06:08:35;;;;;;;0.60;0.10;;;21.00;67.40;;;;;;5033283;28;20060;-75
2023/04/02 06:11:09;;;;;;;0.85;0.10;;;20.80;67.50;;;;;;5031238;28;20060;-74
2023/04/02 06:13:36;;;;;;;1.85;0.47;;;20.70;67.70;;;;;;5022451;28;20062;-74
2023/04/02 06:16:03;;;;;;;1.02;0.20;;;20.60;67.90;;;;;;5017851;28;20499;-75
2023/04/02 06:18:33;;;;;;;1.17;0.20;;;20.50;68.00;;;;;;5023476;28;20056;-74
2023/04/02 06:21:02;;;;;;;0.90;0.50;;;20.40;68.20;;;;;;5036945;28;20052;-74
2023/04/02 06:23:35;;;;;;;1.80;0.60;;;20.30;68.30;;;;;;5030072;28;20055;-74
2023/04/02 06:26:06;;;;;;;0.65;0.30;;;20.30;68.60;;;;;;5024870;28;20046;-74
2023/04/02 06:28:40;;;;;;;0.93;0.10;;;20.20;68.70;;;;;;5031182;28;20049;-74
2023/04/02 06:31:12;;;;;;;1.17;0.17;;;20.20;68.70;;;;;;5031096;28;20053;-74
2023/04/02 06:33:38;;;;;;;2.17;0.43;;;20.20;68.70;;;;;;5028992;28;20045;-74
2023/04/02 06:36:08;;;;;;;1.52;0.10;;;20.10;68.70;;;;;;5021954;28;20053;-74
2023/04/02 06:38:37;;;;;;;0.70;0.10;;;20.20;68.90;;;;;;5029654;28;20414;-75
2023/04/02 06:41:12;;;;;;;2.03;0.20;;;20.10;68.80;;;;;;5018769;28;20053;-74
2023/04/02 06:43:43;;;;;;;0.65;0.20;;;20.20;68.80;;;;;;4973204;28;20056;-75
2023/04/02 06:46:15;;;;;;;1.05;0.10;;;20.20;68.90;;;;;;5052897;28;20505;-75
2023/04/02 06:48:43;;;;;;;1.00;0.20;;;20.20;68.90;;;;;;5055215;28;20425;-74
2023/04/02 06:51:15;;;;;;;0.70;0.10;;;20.20;68.90;;;;;;5056115;28;20052;-75
2023/04/02 06:53:46;;;;;;;0.80;0.20;;;20.20;68.90;;;;;;5057933;28;20044;-74
2023/04/02 06:56:23;;;;;;;0.80;0.22;;;20.20;68.90;;;;;;5059220;28;20047;-74
2023/04/02 06:58:50;;;;;;;0.82;0.17;;;20.30;68.90;;;;;;5051388;28;20057;-75
2023/04/02 07:01:23;;;;;;;0.77;0.20;;;20.30;68.90;;;;;;5054642;28;20056;-74
2023/04/02 07:03:50;;;;;;;0.80;0.15;;;20.30;68.80;;;;;;5055315;28;20048;-74
2023/04/02 07:06:20;;;;;;;1.00;0.10;;;20.30;68.70;;;;;;5060947;28;20041;-73
2023/04/02 07:08:49;;;;;;;1.02;0.10;;;20.40;68.70;;;;;;5058807;28;20090;-74
2023/04/02 07:11:17;;;;;;;0.98;0.22;;;20.50;68.70;;;;;;5059724;28;20048;-74
2023/04/02 07:13:44;;;;;;;1.40;0.50;;;20.50;68.60;;;;;;5058160;28;20053;-75
2023/04/02 07:16:15;;;;;;;0.68;0.17;;;20.50;68.50;;;;;;5063648;28;20389;-75
2023/04/02 07:18:43;;;;;;;1.73;0.10;;;20.50;68.50;;;;;;5057084;28;20118;-74
2023/04/02 07:21:10;;;;;;;0.52;0.10;;;20.50;68.50;;;;;;5050259;28;20064;-74
2023/04/02 07:23:37;;;;;;;1.40;0.20;;;20.50;68.40;;;;;;5054030;28;20053;-76
2023/04/02 07:26:06;;;;;;;0.90;0.10;;;20.50;68.40;;;;;;5054122;28;20053;-74
2023/04/02 07:28:33;;;;;;;2.50;0.35;;;20.50;68.40;;;;;;5060138;28;20041;-73
2023/04/02 07:31:01;;;;;;;0.60;0.10;;;20.60;68.50;;;;;;5049340;28;20055;-73
2023/04/02 07:33:30;;;;;;;1.27;0.20;;;20.60;68.50;;;;;;5050935;28;20146;-69
2023/04/02 07:35:58;;;;;;;1.60;0.20;;;20.60;68.50;;;;;;5053218;28;20049;-71
2023/04/02 07:38:25;;;;;;;1.13;0.10;;;20.60;68.50;;;;;;5056930;28;20520;-71
2023/04/02 07:40:52;;;;;;;0.80;0.10;;;20.60;68.50;;;;;;5065885;28;20555;-71
2023/04/02 07:43:20;;;;;;;1.55;0.80;;;20.60;68.50;;;;;;5056319;28;20103;-71
2023/04/02 07:45:47;;;;;;;1.05;0.20;;;20.60;68.60;;;;;;5059190;28;20049;-71
2023/04/02 07:48:15;;;;;;;2.35;0.10;;;20.50;68.70;;;;;;5066511;28;20045;-71
2023/04/02 07:50:42;;;;;;;2.47;0.47;;;20.60;68.70;;;;;;5063693;28;20084;-71
2023/04/02 07:53:27;;;;;;;1.25;0.20;;;20.50;68.70;;;;;;5056747;28;20047;-75
2023/04/02 07:55:54;;;;;;;2.13;0.13;;;20.50;68.80;;;;;;5060796;28;20052;-69
2023/04/02 07:58:22;;;;;;;0.75;0.10;;;20.40;68.90;;;;;;5061412;28;20060;-71
2023/04/02 08:00:49;;;;;;;0.70;0.10;;;20.40;68.90;;;;;;5054678;28;20075;-70
2023/04/02 08:03:16;;;;;;;0.80;0.10;;;20.40;69.00;;;;;;5058449;28;20466;-71
2023/04/02 08:05:43;;;;;;;0.90;0.10;;;20.30;69.00;;;;;;5052950;28;20045;-70
2023/04/02 08:08:10;;;;;;;0.82;0.20;;;20.30;69.10;;;;;;5064849;28;20045;-68
2023/04/02 08:10:37;;;;;;;2.47;0.20;;;20.30;69.20;;;;;;5068776;28;20052;-70
2023/04/02 08:13:04;;;;;;;1.42;0.35;;;20.30;69.20;;;;;;5057217;28;20041;-71
2023/04/02 08:15:33;;;;;;;1.20;0.13;;;20.20;69.20;;;;;;5048986;28;20057;-71
2023/04/02 08:18:00;;;;;;;2.20;0.65;;;20.20;69.30;;;;;;5058301;28;20049;-72
2023/04/02 08:20:27;;;;;;;1.92;0.40;;;20.20;69.30;;;;;;5058395;28;20048;-71
2023/04/02 08:22:55;;;;;;;0.60;0.17;;;20.20;69.30;;;;;;5058979;28;20058;-71
2023/04/02 08:25:22;;;;;;;1.65;0.20;;;20.20;69.30;;;;;;5050268;28;20136;-71
2023/04/02 08:27:49;;;;;;;0.77;0.15;;;20.10;69.30;;;;;;5059125;28;20052;-71
2023/04/02 08:30:17;;;;;;;1.95;0.40;;;20.20;69.40;;;;;;5053292;28;20080;-70
2023/04/02 08:32:46;;;;;;;2.40;0.55;;;20.20;69.40;;;;;;5059645;28;20044;-72
2023/04/02 08:35:15;;;;;;;3.75;0.30;;;20.20;69.50;;;;;;5054554;28;20128;-71
2023/04/02 08:37:43;;;;;;;;;;;20.20;69.40;;;;;;5053396;28;20493;-70
2023/04/02 08:40:20;;;;;;;3.50;0.30;;;20.20;69.50;;;;;;5048445;28;19924;-70
2023/04/02 08:42:58;;;;;;;2.95;0.20;;;20.20;69.40;;;;;;5053908;28;20409;-69
2023/04/02 08:45:36;;;;;;;2.58;0.10;;;20.20;69.40;;;;;;5056083;28;20079;-62
2023/04/02 08:48:05;;;;;;;3.53;0.52;;;20.20;69.50;;;;;;5052345;28;20131;-64
2023/04/02 08:50:34;;;;;;;3.60;0.13;;;20.20;69.50;;;;;;5049361;28;20049;-63
2023/04/02 08:53:04;;;;;;;4.10;0.20;;;20.20;69.60;;;;;;5048460;28;20045;-65
2023/04/02 08:55:38;;;;;;;3.10;0.57;;;20.10;69.70;;;;;;5044857;28;20489;-64
2023/04/02 08:58:13;;;;;;;2.63;0.68;;;20.20;70.10;;;;;;5047946;28;20056;-65
2023/04/02 09:00:43;;;;;;;2.72;0.25;;;20.20;70.50;;;;;;5055028;28;20044;-73
2023/04/02 09:03:17;;;;;;;5.13;0.82;;;20.20;71.00;;;;;;5047363;28;20049;-64
2023/04/02 09:05:46;;;;;;;2.45;0.35;;;20.20;71.30;;;;;;5052767;28;20412;-64
2023/04/02 09:08:18;;;;;;;3.58;0.50;;;20.20;71.60;;;;;;5053837;28;20489;-68
2023/04/02 09:11:06;;;;;;;3.05;0.30;;;20.30;71.90;;;;;;5048112;28;20509;-67
2023/04/02 09:13:37;;;;;;;4.35;0.40;;;20.30;72.20;;;;;;5045285;28;20057;-69
2023/04/02 09:16:09;;;;;;;2.50;0.30;;;20.30;72.30;;;;;;5046467;28;20088;-66
2023/04/02 09:18:39;;;;;;;6.30;0.38;;;20.30;72.50;;;;;;5049969;28;20048;-70
2023/04/02 09:21:27;;;;;;;6.50;0.40;;;20.30;72.60;;;;;;5061936;28;20052;-67
2023/04/02 09:23:54;;;;;;;3.60;0.40;;;20.30;72.80;;;;;;5062378;28;20052;-64
2023/04/02 09:26:24;;;;;;;2.13;0.20;;;20.30;72.70;;;;;;5046231;28;20044;-67
2023/04/02 09:28:51;;;;;;;;;;;20.30;72.80;;;;;;5044547;28;20052;-68
2023/04/02 09:31:22;;;;;;;4.78;0.40;;;20.30;73.10;;;;;;5050619;28;19920;-71
2023/04/02 09:33:53;;;;;;;5.45;0.75;;;20.30;73.30;;;;;;5049112;28;20052;-71
2023/04/02 09:36:32;;;;;;;2.25;0.30;;;20.30;72.70;;;;;;5047471;28;20053;-68
2023/04/02 09:39:05;;;;;;;2.63;0.47;;;20.30;72.80;;;;;;5046703;28;20068;-64
2023/04/02 09:41:33;;;;;;;3.28;0.50;;;20.30;72.80;;;;;;5048438;28;20057;-67
2023/04/02 09:44:13;;;;;;;5.47;1.05;;;20.30;72.80;;;;;;5047082;28;20060;-73
2023/04/02 09:46:51;;;;;;;3.33;0.55;;;20.30;72.90;;;;;;5046443;28;20502;-65
2023/04/02 09:49:23;;;;;;;2.10;0.20;;;20.40;72.90;;;;;;5050170;28;20470;-69
2023/04/02 09:52:09;;;;;;;3.95;0.85;;;20.30;72.90;;;;;;5057853;28;20041;-67
2023/04/02 09:54:40;;;;;;;3.70;0.88;;;20.40;72.80;;;;;;5053220;28;20053;-69
2023/04/02 09:57:22;;;;;;;3.22;0.30;;;20.40;72.60;;;;;;5059140;28;20051;-68
2023/04/02 10:00:16;;;;;;;2.15;0.40;;;20.40;72.60;;;;;;5052259;28;20511;-71
2023/04/02 10:02:43;;;;;;;;;;;20.40;72.70;;;;;;5056443;28;20408;-68
2023/04/02 10:05:19;;;;;;;1.52;0.20;;;20.40;72.80;;;;;;5048766;28;20381;-65
2023/04/02 10:07:47;;;;;;;;;;;20.50;72.60;;;;;;5058077;28;20049;-65
2023/04/02 10:10:24;;;;;;;4.28;1.15;;;20.50;72.80;;;;;;5058898;28;19924;-65
2023/04/02 10:12:57;;;;;;;2.13;0.20;;;20.50;72.60;;;;;;5054370;28;20136;-66
2023/04/02 10:15:31;;;;;;;2.40;0.10;;;20.40;72.60;;;;;;5047725;28;20603;-65
2023/04/02 10:18:07;;;;;;;2.40;0.20;;;20.40;72.60;;;;;;5046704;28;20053;-64
2023/04/02 10:20:39;;;;;;;2.10;0.30;;;20.40;72.70;;;;;;5055351;28;20059;-63
2023/04/02 10:23:12;;;;;;;3.58;0.82;;;20.50;72.70;;;;;;5049695;28;20049;-62
2023/04/02 10:25:45;;;;;;;1.73;0.30;;;20.50;72.70;;;;;;5051958;28;20063;-67
2023/04/02 10:28:22;;;;;;;2.15;0.20;;;20.50;72.60;;;;;;5052088;28;20060;-66
2023/04/02 10:30:57;;;;;;;3.33;1.05;;;20.50;72.50;;;;;;5060017;28;20051;-69
2023/04/02 10:33:27;;;;;;;;;;;20.50;72.30;;;;;;5049931;28;20049;-72
2023/04/02 10:36:02;;;;;;;2.15;0.20;;;20.50;71.50;;;;;;5047991;28;19971;-73
2023/04/02 10:38:41;;;;;;;3.85;0.15;;;20.50;71.70;;;;;;5051613;28;20076;-60
2023/04/02 10:41:28;;;;;;;3.67;0.20;;;20.50;71.10;;;;;;5054476;28;20514;-62
2023/04/02 10:44:11;;;;;;;4.05;0.80;;;20.50;70.70;;;;;;5051825;28;20485;-60
2023/04/02 10:46:45;;;;;;;2.85;0.17;;;20.50;70.30;;;;;;5058112;28;20049;-62
2023/04/02 10:49:22;;;;;;;2.88;0.20;;;20.50;70.10;;;;;;5056751;28;20050;-61
2023/04/02 10:51:58;;;;;;;2.30;0.50;;;20.50;70.00;;;;;;5061534;28;20055;-60
2023/04/02 10:54:41;;;;;;;2.92;0.30;;;20.50;69.90;;;;;;5051318;28;20071;-60
2023/04/02 10:57:19;;;;;;;2.85;0.20;;;20.50;69.90;;;;;;5057769;28;20094;-60
2023/04/02 10:59:52;;;;;;;1.70;0.10;;;20.50;69.80;;;;;;5065228;28;20048;-60
2023/04/02 11:02:31;;;;;;;1.67;0.10;;;20.50;69.80;;;;;;5060340;28;20587;-59
2023/04/02 11:05:04;;;;;;;2.83;0.20;;;20.50;69.80;;;;;;5050338;28;20742;-60
2023/04/02 11:07:51;;;;;;;2.15;0.93;;;20.50;69.90;;;;;;5056185;28;20144;-60
2023/04/02 11:10:19;;;;;;;1.52;0.20;;;20.50;69.90;;;;;;5059579;28;20051;-60
2023/04/02 11:12:52;;;;;;;2.25;0.43;;;20.60;69.90;;;;;;5052812;28;20398;-60
2023/04/02 11:15:20;;;;;;;3.83;0.10;;;20.60;69.90;;;;;;5050966;28;20051;-60
2023/04/02 11:17:48;;;;;;;4.45;0.43;;;20.50;69.90;;;;;;5063506;28;20093;-60
2023/04/02 11:20:51;;;;;;;1.52;0.10;;;20.50;70.00;;;;;;5050304;28;20045;-60
2023/04/02 11:23:20;;;;;;;1.40;0.13;;;20.60;70.10;;;;;;5060008;28;20059;-60
2023/04/02 11:25:48;;;;;;;1.35;0.43;;;20.50;70.10;;;;;;5061474;28;20613;-60
2023/04/02 11:28:27;;;;;;;2.35;0.20;;;20.60;70.10;;;;;;5063593;28;20045;-60
2023/04/02 11:30:55;;;;;;;2.42;0.85;;;20.60;70.20;;;;;;5050718;28;20045;-60
2023/04/02 11:33:39;;;;;;;2.20;0.57;;;20.60;70.20;;;;;;5055861;28;20048;-60
2023/04/02 11:36:51;;;;;;;3.08;0.10;;;20.60;70.30;;;;;;5067690;28;20098;-60
2023/04/02 11:39:50;;;;;;;3.03;0.60;;;20.60;70.30;;;;;;5000575;28;20229;-61
2023/04/02 11:42:29;;;;;;;3.20;0.20;;;20.60;70.40;;;;;;5047117;28;20151;-60
2023/04/02 11:45:01;;;;;;;2.22;0.30;;;20.60;70.30;;;;;;5059138;28;20045;-60
2023/04/02 11:47:29;;;;;;;1.92;0.60;;;20.60;70.30;;;;;;5060982;28;20464;-60
2023/04/02 11:50:03;;;;;;;2.72;0.10;;;20.60;70.30;;;;;;5058462;28;20048;-59
2023/04/02 11:52:49;;;;;;;1.70;0.50;;;20.70;70.40;;;;;;5051510;28;20049;-60
2023/04/02 11:55:27;;;;;;;2.00;0.63;;;20.70;70.50;;;;;;5056307;28;20047;-60
2023/04/02 11:58:39;;;;;;;1.30;0.43;;;20.70;70.50;;;;;;5049517;28;20112;-60
2023/04/02 12:01:33;;;;;;;1.95;0.85;;;20.70;70.50;;;;;;5043765;28;20438;-62
2023/04/02 12:04:42;;;;;;;1.75;0.20;;;20.70;70.50;;;;;;5050013;28;20068;-60
2023/04/02 12:07:45;;;;;;;2.85;0.20;;;20.70;70.60;;;;;;5019916;28;20049;-59
2023/04/02 12:10:18;;;;;;;2.83;0.10;;;20.70;70.50;;;;;;5051114;28;20045;-61
2023/04/02 12:12:47;;;;;;;1.67;0.20;;;20.70;70.50;;;;;;5059321;28;20061;-61
2023/04/02 12:15:43;;;;;;;1.65;0.20;;;20.80;70.50;;;;;;5051953;28;20481;-60
2023/04/02 12:18:16;;;;;;;1.67;0.13;;;20.80;70.60;;;;;;5039101;28;20044;-60
2023/04/02 12:20:48;;;;;;;1.65;0.30;;;20.80;70.50;;;;;;5061557;28;20056;-60
2023/04/02 12:23:21;;;;;;;2.78;0.20;;;20.80;70.60;;;;;;5051829;28;20092;-60
2023/04/02 12:25:57;;;;;;;0.77;0.20;;;20.80;70.60;;;;;;5067971;28;20071;-60
2023/04/02 12:28:27;;;;;;;2.05;0.20;;;20.90;70.70;;;;;;5064304;28;20052;-60
2023/04/02 12:31:04;;;;;;;1.88;0.10;;;20.90;70.60;;;;;;5051111;28;20049;-61
2023/04/02 12:33:36;;;;;;;1.60;0.20;;;20.90;70.70;;;;;;5060147;28;20106;-60
2023/04/02 12:36:08;;;;;;;1.65;0.70;;;20.90;70.60;;;;;;5056647;28;20045;-61
2023/04/02 12:38:43;;;;;;;1.38;0.10;;;20.90;70.60;;;;;;5049408;28;20462;-63
2023/04/02 12:41:22;;;;;;;1.00;0.50;;;21.00;70.50;;;;;;5057348;28;20060;-61
2023/04/02 12:43:57;;;;;;;1.85;0.10;;;21.00;70.10;;;;;;5056408;28;20053;-60
2023/04/02 12:46:25;;;;;;;2.53;0.20;;;21.00;69.40;;;;;;5047510;28;20049;-61
2023/04/02 12:48:53;;;;;;;2.97;0.38;;;21.00;69.10;;;;;;5053806;28;20048;-61
2023/04/02 12:51:20;;;;;;;1.52;0.20;;;21.00;68.60;;;;;;5048624;28;20394;-62
2023/04/02 12:53:51;;;;;;;2.47;0.30;;;21.10;68.00;;;;;;5047290;28;20457;-61
2023/04/02 12:56:21;;;;;;;4.60;0.20;;;21.10;67.40;;;;;;5057133;28;20045;-61
2023/04/02 12:58:53;;;;;;;3.55;0.20;;;21.10;67.40;;;;;;5057557;28;20076;-60
2023/04/02 13:01:26;;;;;;;3.13;0.10;;;21.10;67.30;;;;;;5054589;28;20041;-60
2023/04/02 13:04:04;;;;;;;1.52;0.10;;;21.10;67.30;;;;;;5056585;28;20059;-61
2023/04/02 13:06:32;;;;;;;2.40;0.20;;;21.20;67.40;;;;;;5050088;28;20057;-60
2023/04/02 13:09:00;;;;;;;3.83;0.22;;;21.30;67.50;;;;;;5053198;28;20044;-60
2023/04/02 13:11:38;;;;;;;1.23;0.10;;;21.30;67.60;;;;;;5058217;28;20045;-61
2023/04/02 13:14:14;;;;;;;2.03;0.30;;;21.40;67.80;;;;;;5048991;28;20052;-61
2023/04/02 13:16:42;;;;;;;1.98;0.65;;;21.40;67.80;;;;;;5050528;28;20055;-60
2023/04/02 13:19:26;;;;;;;2.15;0.20;;;21.50;67.90;;;;;;5047896;28;20132;-60